Time;durP1;ratioP1;P1;durP2;ratioP2;P2;SDS_P1;SDS_P2;PMS_P1;PMS_P2;Temp;Humidity;BMP_temperature;BMP_pressure;BME280_temperature;BME280_humidity;BME280_pressure;Samples;Min_cycle;Max_cycle;Signal;HPM_P1;HPM_P2
2023/08/26 00:00:23;;;;;;;;;3.33;3.00;;;;;24.46;62.33;100357.09;5058134;28;45223;-76
2023/08/26 00:02:49;;;;;;;;;3.33;3.00;;;;;24.46;62.03;100358.91;5041138;28;45334;-77
2023/08/26 00:05:14;;;;;;;;;5.00;3.33;;;;;24.38;62.34;100349.31;5065313;28;45215;-77
2023/08/26 00:07:40;;;;;;;;;4.67;4.00;;;;;24.29;62.75;100349.63;5067778;28;45489;-77
2023/08/26 00:10:06;;;;;;;;;3.33;3.33;;;;;23.93;63.47;100304.38;5054726;28;45424;-77
2023/08/26 00:12:32;;;;;;;;;4.33;4.33;;;;;24.01;63.71;100318.41;5075997;27;45528;-77
2023/08/26 00:14:57;;;;;;;;;4.00;3.00;;;;;24.00;63.58;100323.78;5059140;28;45307;-76
2023/08/26 00:17:23;;;;;;;;;3.33;3.00;;;;;23.88;63.86;100316.13;5068027;28;45407;-76
2023/08/26 00:19:50;;;;;;;;;7.67;4.00;;;;;23.98;63.42;100329.16;5065473;28;45295;-76
2023/08/26 00:22:17;;;;;;;;;3.00;3.00;;;;;24.03;63.68;100337.00;5056363;28;45675;-76
2023/08/26 00:24:44;;;;;;;;;5.00;4.67;;;;;24.05;63.27;100327.16;5059338;28;46122;-76
2023/08/26 00:27:10;;;;;;;;;3.33;3.33;;;;;24.13;63.06;100330.50;5058809;28;45498;-77
2023/08/26 00:29:35;;;;;;;;;6.00;5.00;;;;;24.16;63.57;100325.06;5059296;28;45450;-79
2023/08/26 00:32:01;;;;;;;;;3.00;3.00;;;;;24.06;63.31;100307.59;5060140;28;45342;-76
2023/08/26 00:34:27;;;;;;;;;4.00;3.33;;;;;24.11;63.07;100310.97;5073390;28;45648;-76
2023/08/26 00:36:52;;;;;;;;;3.00;3.00;;;;;24.18;62.85;100314.34;5040540;28;45334;-78
2023/08/26 00:39:18;;;;;;;;;4.67;3.67;;;;;24.25;62.29;100317.69;5071943;28;45354;-76
2023/08/26 00:41:44;;;;;;;;;3.33;3.00;;;;;24.18;62.28;100298.34;5061150;28;45485;-77
2023/08/26 00:44:09;;;;;;;;;4.00;3.67;;;;;24.20;62.66;100297.38;5064685;28;47956;-76
2023/08/26 00:46:35;;;;;;;;;4.00;4.00;;;;;24.18;62.45;100301.00;5040498;28;45296;-76
2023/08/26 00:49:01;;;;;;;;;4.00;3.33;;;;;24.20;62.39;100313.38;5044158;28;45451;-81
2023/08/26 00:51:28;;;;;;;;;5.00;4.00;;;;;24.10;62.89;100295.91;5079489;27;45454;-76
2023/08/26 00:53:54;;;;;;;;;4.00;3.00;;;;;24.00;62.62;100303.28;5064321;28;46192;-76
2023/08/26 00:56:21;;;;;;;;;3.67;3.00;;;;;24.02;63.72;100312.13;5059033;28;45432;-78
2023/08/26 00:58:47;;;;;;;;;2.67;2.33;;;;;23.85;63.80;100289.53;5078098;27;45406;-76
2023/08/26 01:01:13;;;;;;;;;4.00;4.00;;;;;23.88;63.63;100302.78;5077740;27;45374;-76
2023/08/26 01:03:39;;;;;;;;;4.00;4.00;;;;;23.96;63.47;100314.97;5060712;28;45532;-76
2023/08/26 01:06:05;;;;;;;;;4.00;3.00;;;;;23.15;64.34;100183.94;5072267;28;45332;-76
2023/08/26 01:08:31;;;;;;;;;3.00;3.00;;;;;23.70;63.78;100269.50;5059018;28;45312;-76
2023/08/26 01:11:16;;;;;;;;;3.00;2.67;;;;;23.85;64.01;100302.88;5040350;28;45676;-78
2023/08/26 01:14:00;;;;;;;;;2.67;2.33;;;;;23.85;64.50;100297.53;5057237;28;45386;-77
2023/08/26 01:16:27;;;;;;;;;4.00;3.00;;;;;23.77;63.72;100282.59;5046662;28;45278;-77
2023/08/26 01:18:53;;;;;;;;;4.00;3.00;;;;;23.71;64.35;100284.56;5058692;28;45292;-76
2023/08/26 01:21:23;;;;;;;;;4.00;3.00;;;;;23.84;63.79;100296.66;5061443;28;45517;-76
2023/08/26 01:23:50;;;;;;;;;3.00;3.00;;;;;23.88;63.78;100287.66;5040458;28;45368;-78
2023/08/26 01:26:15;;;;;;;;;4.00;2.67;;;;;23.87;63.74;100277.03;5058095;28;45314;-76
2023/08/26 01:28:41;;;;;;;;;3.00;3.00;;;;;23.90;63.70;100285.81;5057260;28;45821;-76
2023/08/26 01:31:12;;;;;;;;;3.00;3.00;;;;;23.88;63.63;100276.13;5058653;28;45328;-77
2023/08/26 01:33:58;;;;;;;;;4.00;3.00;;;;;23.93;63.48;100283.03;5062038;28;46153;-77
2023/08/26 01:36:25;;;;;;;;;3.00;2.33;;;;;23.94;63.42;100275.94;5058076;28;45475;-77
2023/08/26 01:38:52;;;;;;;;;3.67;3.00;;;;;23.95;63.56;100288.34;5058013;28;45240;-76
2023/08/26 01:41:20;;;;;;;;;3.00;3.00;;;;;23.92;63.40;100273.31;5050145;28;45529;-78
2023/08/26 01:43:48;;;;;;;;;3.33;3.33;;;;;23.90;63.98;100280.47;5078626;28;46333;-77
2023/08/26 01:46:17;;;;;;;;;5.00;4.00;;;;;24.04;63.80;100290.75;5070415;27;45340;-79
2023/08/26 01:48:43;;;;;;;;;4.33;3.67;;;;;24.10;63.77;100290.56;5065021;28;45380;-77
2023/08/26 01:51:09;;;;;;;;;5.67;4.00;;;;;24.02;64.32;100272.09;5057558;28;45473;-76
2023/08/26 01:53:35;;;;;;;;;2.00;2.00;;;;;23.93;64.58;100295.50;5057640;28;46472;-77
2023/08/26 01:56:00;;;;;;;;;3.67;3.00;;;;;23.80;64.58;100277.19;5057256;28;45525;-77
2023/08/26 01:58:26;;;;;;;;;3.00;3.00;;;;;23.87;64.64;100285.91;5072604;28;45488;-77
2023/08/26 02:00:52;;;;;;;;;4.67;3.67;;;;;23.84;64.33;100272.66;5052022;28;45528;-76
2023/08/26 02:03:17;;;;;;;;;3.33;3.33;;;;;23.85;64.51;100285.06;5057052;28;46101;-76
2023/08/26 02:05:43;;;;;;;;;4.00;3.33;;;;;23.78;64.43;100289.72;5057048;28;45439;-77
2023/08/26 02:08:09;;;;;;;;;3.00;3.00;;;;;23.75;64.45;100286.22;5057136;28;45489;-76
2023/08/26 02:10:34;;;;;;;;;3.00;3.00;;;;;23.74;64.35;100277.34;5057175;28;45446;-76
2023/08/26 02:13:00;;;;;;;;;4.00;4.00;;;;;23.62;64.46;100259.91;5057946;28;46139;-77
2023/08/26 02:15:26;;;;;;;;;3.00;3.00;;;;;23.65;64.79;100266.94;5071135;28;45330;-78
2023/08/26 02:17:52;;;;;;;;;4.67;4.67;;;;;23.78;64.59;100279.03;5058671;28;45326;-77
2023/08/26 02:20:17;;;;;;;;;3.00;2.67;;;;;23.68;64.52;100263.31;5067292;28;45719;-77
2023/08/26 02:22:43;;;;;;;;;3.00;3.00;;;;;23.71;64.50;100272.09;5068178;28;45501;-77
2023/08/26 02:25:08;;;;;;;;;2.67;2.67;;;;;23.68;64.51;100268.66;5069005;28;46053;-76
2023/08/26 02:27:34;;;;;;;;;2.00;2.00;;;;;23.51;65.04;100245.13;5060731;28;45419;-79
2023/08/26 02:29:59;;;;;;;;;3.00;3.00;;;;;23.60;65.38;100267.06;5064681;27;45370;-77
2023/08/26 02:32:25;;;;;;;;;3.00;3.00;;;;;23.49;65.19;100255.81;5051297;28;47657;-76
2023/08/26 02:34:51;;;;;;;;;4.00;3.00;;;;;23.54;65.05;100266.38;5066127;28;45396;-77
2023/08/26 02:37:16;;;;;;;;;4.33;4.00;;;;;23.49;65.19;100260.28;5061539;28;45572;-85
2023/08/26 02:39:42;;;;;;;;;4.00;3.00;;;;;23.69;65.15;100279.25;5056300;28;46273;-77
2023/08/26 02:42:07;;;;;;;;;3.00;3.00;;;;;23.70;65.02;100266.81;5055927;28;46021;-77
2023/08/26 02:44:33;;;;;;;;;3.67;3.00;;;;;23.70;64.55;100259.69;5057696;28;45826;-76
2023/08/26 02:46:59;;;;;;;;;4.33;3.67;;;;;23.50;64.27;100220.25;5071200;28;45493;-78
2023/08/26 02:49:26;;;;;;;;;3.00;3.00;;;;;23.53;64.84;100243.28;5056369;28;45435;-76
2023/08/26 02:51:52;;;;;;;;;4.00;4.00;;;;;23.54;64.93;100250.38;5038570;28;46397;-77
2023/08/26 02:54:17;;;;;;;;;3.33;3.33;;;;;23.58;64.72;100249.38;5071420;28;45367;-76
2023/08/26 02:56:43;;;;;;;;;3.00;3.00;;;;;23.50;64.75;100241.59;5039007;28;45444;-76
2023/08/26 02:59:09;;;;;;;;;4.00;3.33;;;;;23.40;65.67;100226.78;5057054;28;45471;-79
2023/08/26 03:01:37;;;;;;;;;3.00;3.00;;;;;23.32;66.25;100229.66;5060080;28;45454;-76
2023/08/26 03:04:04;;;;;;;;;4.00;4.00;;;;;23.32;66.16;100236.78;5077242;28;45636;-78
2023/08/26 03:06:30;;;;;;;;;4.00;3.00;;;;;23.23;66.19;100229.91;5075364;28;45451;-76
2023/08/26 03:08:55;;;;;;;;;2.67;2.00;;;;;23.28;65.56;100230.66;5060490;28;45383;-76
2023/08/26 03:11:22;;;;;;;;;3.67;3.67;;;;;23.22;66.07;100218.38;5056257;28;45950;-76
2023/08/26 03:13:49;;;;;;;;;5.00;3.33;;;;;23.34;65.29;100226.97;5056087;28;45723;-77
2023/08/26 03:16:15;;;;;;;;;2.33;2.00;;;;;23.13;63.39;100221.28;5038254;28;45460;-76
2023/08/26 03:18:40;;;;;;;;;2.67;1.33;;;;;22.87;63.87;100215.75;5072036;28;45284;-76
2023/08/26 03:21:07;;;;;;;;;3.00;3.00;;;;;22.61;63.65;100180.88;5056290;28;45338;-75
2023/08/26 03:23:36;;;;;;;;;1.00;1.00;;;;;22.60;63.60;100199.53;5038180;28;45554;-76
2023/08/26 03:26:03;;;;;;;;;2.00;2.00;;;;;22.54;63.36;100202.34;5056400;28;45376;-76
2023/08/26 03:28:29;;;;;;;;;1.00;1.00;;;;;22.19;63.20;100173.00;5056517;28;45435;-78
2023/08/26 03:31:02;;;;;;;;;2.00;1.00;;;;;22.25;63.86;100209.28;5053456;28;46781;-76
2023/08/26 03:33:28;;;;;;;;;1.00;1.00;;;;;22.08;63.75;100190.13;5062864;28;45596;-75
2023/08/26 03:35:54;;;;;;;;;1.00;1.00;;;;;22.04;64.37;100216.81;5063638;28;45346;-76
2023/08/26 03:38:19;;;;;;;;;1.00;1.00;;;;;21.85;64.08;100212.81;5041092;28;45280;-75
2023/08/26 03:40:45;;;;;;;;;1.00;1.00;;;;;21.99;64.27;100224.00;5037672;28;46195;-77
2023/08/26 03:43:10;;;;;;;;;1.33;1.00;;;;;21.95;64.69;100225.00;5063603;28;45575;-75
2023/08/26 03:45:39;;;;;;;;;2.00;2.00;;;;;21.91;64.16;100219.78;5063591;28;45485;-75
2023/08/26 03:48:05;;;;;;;;;1.00;1.00;;;;;21.88;64.13;100219.84;5071635;28;45272;-81
2023/08/26 03:50:30;;;;;;;;;1.00;1.00;;;;;22.03;63.90;100233.66;5075591;28;45475;-76
2023/08/26 03:52:56;;;;;;;;;1.00;1.00;;;;;22.09;63.84;100218.50;5078269;28;45410;-76
2023/08/26 03:55:22;;;;;;;;;1.00;1.00;;;;;22.07;63.29;100222.97;5059630;28;45541;-78
2023/08/26 03:57:47;;;;;;;;;1.00;1.00;;;;;21.94;63.61;100207.25;5065853;28;45964;-78
2023/08/26 04:00:14;;;;;;;;;0.00;0.00;;;;;21.95;63.59;100208.16;5077187;28;46162;-76
2023/08/26 04:02:40;;;;;;;;;0.33;0.33;;;;;21.72;64.30;100182.06;5064326;28;45969;-75
2023/08/26 04:05:06;;;;;;;;;1.00;0.00;;;;;21.89;64.11;100211.81;5057427;28;45552;-76
2023/08/26 04:07:32;;;;;;;;;0.00;0.00;;;;;21.87;63.80;100211.00;5059636;28;45506;-76
2023/08/26 04:09:58;;;;;;;;;0.00;0.00;;;;;21.74;64.11;100202.38;5068841;28;46416;-76
2023/08/26 04:12:23;;;;;;;;;0.00;0.00;;;;;21.66;64.30;100201.69;5078672;27;45423;-76
2023/08/26 04:14:49;;;;;;;;;0.67;0.67;;;;;21.60;64.40;100212.44;5061813;28;45372;-76
2023/08/26 04:17:14;;;;;;;;;0.00;0.00;;;;;21.48;65.19;100188.78;5072863;28;45525;-75
2023/08/26 04:19:40;;;;;;;;;0.00;0.00;;;;;21.54;64.85;100197.50;5054850;28;45592;-75
2023/08/26 04:22:07;;;;;;;;;1.00;0.00;;;;;21.48;64.54;100188.78;5067532;27;45264;-75
2023/08/26 04:24:33;;;;;;;;;0.67;0.67;;;;;21.46;64.90;100188.81;5047178;28;45501;-75
2023/08/26 04:26:59;;;;;;;;;1.33;1.00;;;;;21.47;64.76;100193.22;5059472;28;45897;-75
2023/08/26 04:29:24;;;;;;;;;0.00;0.00;;;;;21.45;64.66;100192.38;5060431;28;46227;-75
2023/08/26 04:31:50;;;;;;;;;1.00;1.00;;;;;21.47;64.72;100181.69;5065806;28;45445;-75
2023/08/26 04:34:15;;;;;;;;;0.00;0.00;;;;;21.39;63.98;100163.25;5065699;28;45462;-75
2023/08/26 04:36:41;;;;;;;;;0.00;0.00;;;;;21.43;63.83;100175.59;5058693;28;45784;-78
2023/08/26 04:39:10;;;;;;;;;0.00;0.00;;;;;21.51;64.18;100175.44;5074195;28;45562;-84
2023/08/26 04:41:39;;;;;;;;;1.00;1.00;;;;;21.55;63.42;100188.63;5066714;28;45477;-84
2023/08/26 04:44:05;;;;;;;;;1.00;1.00;;;;;21.61;63.25;100195.59;5077273;27;45451;-85
2023/08/26 04:46:31;;;;;;;;;0.00;0.00;;;;;21.63;63.52;100186.69;5076419;28;45671;-78
2023/08/26 04:48:57;;;;;;;;;0.67;0.67;;;;;21.81;63.32;100198.69;5059032;28;46406;-85
2023/08/26 04:51:23;;;;;;;;;0.00;0.00;;;;;21.88;63.14;100190.59;5058473;28;45457;-78
2023/08/26 04:53:48;;;;;;;;;0.67;0.00;;;;;21.73;63.22;100171.41;5070766;28;45540;-75
2023/08/26 04:56:15;;;;;;;;;1.00;1.00;;;;;21.73;64.02;100158.13;5061860;28;45523;-76
2023/08/26 04:58:40;;;;;;;;;1.00;1.00;;;;;21.93;64.29;100191.38;5073122;28;45576;-75
2023/08/26 05:01:06;;;;;;;;;0.67;0.67;;;;;21.88;64.21;100164.84;5048429;28;45459;-76
2023/08/26 05:03:32;;;;;;;;;0.67;0.67;;;;;21.96;64.65;100180.63;5075294;28;45596;-76
2023/08/26 05:05:57;;;;;;;;;0.00;0.00;;;;;22.08;64.56;100188.34;5060141;28;45765;-75
2023/08/26 05:08:23;;;;;;;;;0.67;0.00;;;;;22.17;64.02;100189.94;5039845;28;47675;-75
2023/08/26 05:10:49;;;;;;;;;1.00;1.00;;;;;22.09;64.46;100175.94;5051537;28;45557;-75
2023/08/26 05:13:14;;;;;;;;;1.00;1.00;;;;;22.18;64.28;100189.91;5052519;28;45307;-75
2023/08/26 05:15:40;;;;;;;;;1.00;1.00;;;;;22.22;64.47;100198.66;5061814;28;46536;-75
2023/08/26 05:18:05;;;;;;;;;1.00;0.00;;;;;22.22;63.99;100188.91;5055087;28;46624;-76
2023/08/26 05:20:31;;;;;;;;;0.33;0.33;;;;;22.33;64.01;100193.13;5056603;28;45550;-75
2023/08/26 05:22:57;;;;;;;;;1.00;1.00;;;;;22.33;64.13;100207.31;5069802;27;45498;-74
2023/08/26 05:25:23;;;;;;;;;0.00;0.00;;;;;22.23;63.72;100200.41;5061300;28;45834;-76
2023/08/26 05:27:48;;;;;;;;;1.00;1.00;;;;;22.28;63.94;100193.22;5059269;28;48613;-75
2023/08/26 05:30:14;;;;;;;;;0.33;0.33;;;;;22.28;63.75;100210.97;5046798;28;45478;-75
2023/08/26 05:32:40;;;;;;;;;1.00;1.00;;;;;22.37;63.59;100224.94;5066373;28;45454;-75
2023/08/26 05:35:06;;;;;;;;;1.67;0.00;;;;;22.31;64.02;100214.44;5073145;28;45576;-75
2023/08/26 05:37:31;;;;;;;;;0.67;0.67;;;;;22.36;64.11;100231.19;5072789;27;47151;-74
2023/08/26 05:39:57;;;;;;;;;1.00;0.00;;;;;22.38;64.04;100232.03;5064036;28;45443;-75
2023/08/26 05:42:22;;;;;;;;;1.00;1.00;;;;;22.47;64.04;100230.06;5066570;28;45362;-75
2023/08/26 05:44:48;;;;;;;;;0.33;0.00;;;;;22.54;63.89;100235.19;5058014;28;45596;-75
2023/08/26 05:47:14;;;;;;;;;0.00;0.00;;;;;22.47;63.35;100222.06;5038929;28;46224;-74
2023/08/26 05:49:39;;;;;;;;;0.00;0.00;;;;;22.42;63.94;100223.06;5057235;28;45417;-75
2023/08/26 05:52:06;;;;;;;;;3.00;2.00;;;;;22.40;64.50;100231.97;5072602;28;45565;-78
2023/08/26 05:54:32;;;;;;;;;2.33;2.33;;;;;22.47;65.30;100235.38;5039652;28;45533;-75
2023/08/26 05:56:58;;;;;;;;;5.00;3.00;;;;;22.56;65.38;100232.47;5055922;28;46875;-75
2023/08/26 05:59:23;;;;;;;;;6.33;5.67;;;;;22.55;66.47;100218.31;5055522;28;45582;-75
2023/08/26 06:01:49;;;;;;;;;2.33;2.33;;;;;22.52;66.69;100207.75;5071726;28;45600;-79
2023/08/26 06:04:15;;;;;;;;;2.00;2.00;;;;;22.60;66.65;100219.06;5057978;28;45546;-75
2023/08/26 06:06:40;;;;;;;;;2.00;2.00;;;;;22.55;66.37;100212.09;5038883;28;46219;-75
2023/08/26 06:09:06;;;;;;;;;2.33;2.00;;;;;22.48;66.96;100199.84;5068031;28;45457;-75
2023/08/26 06:11:31;;;;;;;;;3.00;3.00;;;;;22.57;66.97;100220.94;5062456;28;45300;-75
2023/08/26 06:13:58;;;;;;;;;2.33;2.33;;;;;22.57;67.33;100215.59;5072984;28;45325;-76
2023/08/26 06:16:24;;;;;;;;;2.00;2.00;;;;;22.55;66.84;100206.78;5056855;28;45468;-76
2023/08/26 06:18:50;;;;;;;;;1.67;1.33;;;;;22.58;67.04;100217.34;5072248;28;45289;-76
2023/08/26 06:21:16;;;;;;;;;1.67;1.67;;;;;22.50;66.62;100208.66;5055544;28;45565;-74
2023/08/26 06:23:42;;;;;;;;;2.00;2.00;;;;;22.45;66.62;100206.13;5056851;28;45505;-78
2023/08/26 06:26:07;;;;;;;;;2.67;2.00;;;;;22.54;66.31;100237.88;5056855;28;46234;-75
2023/08/26 06:28:33;;;;;;;;;3.00;3.00;;;;;22.40;66.78;100235.53;5059364;28;46018;-75
2023/08/26 06:31:03;;;;;;;;;1.67;1.67;;;;;22.26;66.91;100232.28;5074983;28;45422;-84
2023/08/26 06:33:29;;;;;;;;;2.00;1.00;;;;;22.15;67.21;100221.00;5047558;28;45479;-75
2023/08/26 06:35:55;;;;;;;;;1.33;1.00;;;;;22.11;67.60;100219.34;5056629;28;45433;-74
2023/08/26 06:38:20;;;;;;;;;1.33;1.33;;;;;22.26;66.71;100224.31;5071894;28;45542;-76
2023/08/26 06:40:54;;;;;;;;;2.00;1.00;;;;;22.27;66.93;100212.78;5056764;28;45277;-75
2023/08/26 06:43:20;;;;;;;;;4.00;3.67;;;;;22.26;67.23;100232.28;5056480;28;45462;-75
2023/08/26 06:45:46;;;;;;;;;2.00;2.00;;;;;22.16;67.07;100213.00;5038000;28;46376;-79
2023/08/26 06:48:12;;;;;;;;;5.33;5.33;;;;;22.19;67.50;100215.56;5059732;28;45440;-75
2023/08/26 06:50:39;;;;;;;;;1.00;1.00;;;;;22.21;67.39;100229.72;5075211;28;45804;-75
2023/08/26 06:53:04;;;;;;;;;3.00;2.00;;;;;22.18;66.93;100218.25;5047311;28;45660;-78
2023/08/26 06:55:30;;;;;;;;;2.00;2.00;;;;;22.24;67.10;100215.50;5053267;28;46433;-76
2023/08/26 06:57:56;;;;;;;;;3.00;2.00;;;;;22.26;67.36;100204.81;5054712;28;45414;-74
2023/08/26 07:00:22;;;;;;;;;8.00;7.00;;;;;22.27;67.65;100196.81;5064355;27;46055;-74
2023/08/26 07:02:47;;;;;;;;;6.67;6.00;;;;;22.30;67.01;100196.72;5057012;28;45466;-78
2023/08/26 07:05:13;;;;;;;;;3.00;3.00;;;;;22.42;65.74;100204.44;5070859;27;47649;-75
2023/08/26 07:07:39;;;;;;;;;2.00;2.00;;;;;22.50;66.37;100208.66;5069531;28;45477;-76
2023/08/26 07:10:05;;;;;;;;;4.00;4.00;;;;;22.50;66.37;100198.94;5073882;27;45484;-74
2023/08/26 07:12:31;;;;;;;;;4.00;4.00;;;;;22.61;65.95;100201.31;5075928;28;45505;-81
2023/08/26 07:14:58;;;;;;;;;3.00;3.00;;;;;22.71;66.23;100197.50;5074476;27;46128;-82
2023/08/26 07:17:24;;;;;;;;;2.33;1.00;;;;;22.86;65.28;100198.00;5071220;28;45408;-76
2023/08/26 07:19:50;;;;;;;;;1.00;1.00;;;;;22.97;64.98;100193.28;5069323;27;45445;-79
2023/08/26 07:22:15;;;;;;;;;0.33;0.33;;;;;23.27;64.25;100202.25;5062616;28;45364;-76
2023/08/26 07:24:41;;;;;;;;;1.00;1.00;;;;;23.59;63.82;100206.66;5072000;27;45631;-82
2023/08/26 07:27:07;;;;;;;;;0.00;0.00;;;;;23.78;63.02;100199.03;5072367;28;45604;-74
2023/08/26 07:29:38;;;;;;;;;0.00;0.00;;;;;23.95;62.06;100211.84;5044591;28;45335;-83
2023/08/26 07:32:04;;;;;;;;;0.00;0.00;;;;;24.05;61.96;100206.22;5041162;28;45462;-83
2023/08/26 07:34:30;;;;;;;;;1.00;0.00;;;;;24.23;61.01;100200.31;5058787;28;47113;-79
2023/08/26 07:36:55;;;;;;;;;0.00;0.00;;;;;24.45;60.66;100194.28;5064007;28;45423;-74
2023/08/26 07:39:24;;;;;;;;;0.00;0.00;;;;;24.84;59.67;100201.91;5070088;27;45498;-74
2023/08/26 07:41:50;;;;;;;;;0.00;0.00;;;;;25.12;58.14;100197.31;5072795;28;45536;-80
2023/08/26 07:44:16;;;;;;;;;0.00;0.00;;;;;25.45;57.90;100186.38;5068698;27;45623;-77
2023/08/26 07:46:42;;;;;;;;;0.00;0.00;;;;;25.66;57.17;100190.03;5059238;28;45483;-75
2023/08/26 07:49:07;;;;;;;;;1.00;1.00;;;;;25.72;57.56;100191.59;5049276;28;45434;-74
2023/08/26 07:51:40;;;;;;;;;1.00;1.00;;;;;25.80;57.14;100184.16;5061734;28;45518;-77
2023/08/26 07:54:05;;;;;;;;;0.00;0.00;;;;;26.16;56.80;100192.59;5079732;27;45541;-76
2023/08/26 07:56:31;;;;;;;;;3.67;3.00;;;;;26.42;55.60;100179.03;5079579;28;45507;-78
2023/08/26 07:58:57;;;;;;;;;27.67;21.33;;;;;26.33;54.32;100186.53;5061305;28;45568;-81
2023/08/26 08:01:24;;;;;;;;;24.33;19.33;;;;;26.13;56.08;100171.28;5061105;28;45398;-79
2023/08/26 08:03:50;;;;;;;;;12.33;11.00;;;;;26.33;55.41;100194.56;5079444;27;45418;-83
2023/08/26 08:06:16;;;;;;;;;9.67;9.33;;;;;26.33;55.27;100191.88;5095206;27;45386;-78
2023/08/26 08:08:42;;;;;;;;;4.33;4.33;;;;;26.06;55.41;100191.19;5079469;27;45333;-80
2023/08/26 08:11:08;;;;;;;;;2.67;2.00;;;;;26.18;55.57;100201.41;5061935;28;45441;-80
2023/08/26 08:13:34;;;;;;;;;0.00;0.00;;;;;26.14;55.74;100204.25;5080002;27;45334;-81
2023/08/26 08:16:00;;;;;;;;;0.00;0.00;;;;;26.19;55.79;100200.47;5081445;27;45466;-75
2023/08/26 08:18:26;;;;;;;;;1.00;1.00;;;;;26.23;55.40;100211.06;5091897;27;45497;-81
2023/08/26 08:20:52;;;;;;;;;1.00;0.00;;;;;26.15;55.07;100196.19;5081772;27;45430;-74
2023/08/26 08:23:18;;;;;;;;;2.00;1.00;;;;;26.25;55.46;100202.03;5078118;28;45413;-74
2023/08/26 08:25:44;;;;;;;;;0.00;0.00;;;;;26.47;55.38;100199.34;5078855;27;45596;-74
2023/08/26 08:28:09;;;;;;;;;1.00;1.00;;;;;26.61;54.71;100188.09;5078988;28;45489;-74
2023/08/26 08:30:35;;;;;;;;;3.00;1.00;;;;;26.84;54.39;100189.81;5078809;27;45558;-74
2023/08/26 08:33:00;;;;;;;;;1.00;1.00;;;;;27.01;53.92;100191.72;5078411;28;45328;-74
2023/08/26 08:35:26;;;;;;;;;0.00;0.00;;;;;27.12;53.45;100205.53;5077938;27;45473;-77
2023/08/26 08:37:52;;;;;;;;;2.00;1.00;;;;;26.99;53.42;100166.81;5077309;28;45298;-78
2023/08/26 08:40:18;;;;;;;;;1.00;1.00;;;;;27.15;53.58;100197.34;5068125;27;45395;-82
2023/08/26 08:42:47;;;;;;;;;0.33;0.33;;;;;27.16;52.84;100180.34;5051601;28;48571;-76
2023/08/26 08:45:13;;;;;;;;;0.00;0.00;;;;;27.41;52.36;100198.03;5065338;28;45396;-74
2023/08/26 08:47:39;;;;;;;;;4.67;4.00;;;;;27.44;51.68;100189.84;5081496;28;45512;-77
2023/08/26 08:50:05;;;;;;;;;0.00;0.00;;;;;27.46;50.99;100190.66;5065665;27;45628;-80
2023/08/26 08:52:32;;;;;;;;;0.00;0.00;;;;;27.40;51.93;100185.56;5058009;28;45504;-79
2023/08/26 08:54:58;;;;;;;;;1.00;1.00;;;;;27.44;50.70;100195.22;5059571;27;45497;-77
2023/08/26 08:57:32;;;;;;;;;2.00;2.00;;;;;27.17;52.18;100171.34;5050722;28;45451;-81
2023/08/26 09:00:00;;;;;;;;;1.00;1.00;;;;;27.25;51.58;100189.78;5050770;28;45580;-78
2023/08/26 09:02:27;;;;;;;;;1.00;1.00;;;;;27.00;52.21;100179.28;5071036;27;45766;-75
2023/08/26 09:04:54;;;;;;;;;1.00;1.00;;;;;27.11;53.34;100186.84;5057491;28;45761;-75
2023/08/26 09:07:21;;;;;;;;;1.00;1.00;;;;;27.19;53.05;100192.72;5053487;28;45287;-75
2023/08/26 09:09:47;;;;;;;;;2.67;2.00;;;;;27.10;52.42;100180.59;5058611;28;45355;-75
2023/08/26 09:12:13;;;;;;;;;3.67;2.67;;;;;27.07;52.90;100180.72;5039666;28;47941;-75
2023/08/26 09:14:38;;;;;;;;;4.00;4.00;;;;;26.99;52.57;100177.53;5067291;28;45587;-76
2023/08/26 09:17:18;;;;;;;;;5.00;5.00;;;;;27.00;53.21;100179.28;5062970;27;45448;-75
2023/08/26 09:19:53;;;;;;;;;3.67;3.67;;;;;27.02;53.27;100172.03;5057884;28;45584;-75
2023/08/26 09:22:20;;;;;;;;;3.00;3.00;;;;;27.14;53.40;100176.84;5068219;28;46001;-76
2023/08/26 09:24:47;;;;;;;;;3.00;3.00;;;;;27.25;52.70;100173.72;5057081;28;45449;-79
2023/08/26 09:27:16;;;;;;;;;4.33;4.00;;;;;27.40;53.06;100176.63;5057562;28;45351;-75
2023/08/26 09:29:42;;;;;;;;;4.67;4.00;;;;;27.50;52.57;100183.34;5058534;28;45347;-75
2023/08/26 09:32:07;;;;;;;;;6.33;5.00;;;;;27.56;52.10;100167.81;5057374;28;45940;-75
2023/08/26 09:34:33;;;;;;;;;3.00;2.33;;;;;27.69;52.21;100156.50;5056230;28;45451;-75
2023/08/26 09:37:03;;;;;;;;;3.00;2.00;;;;;27.79;51.89;100168.53;5058238;28;45255;-75
2023/08/26 09:39:29;;;;;;;;;3.00;3.00;;;;;27.69;51.44;100140.41;5056893;28;45707;-82
2023/08/26 09:41:56;;;;;;;;;3.00;3.00;;;;;27.79;51.05;100165.84;5057630;28;45334;-75
2023/08/26 09:44:23;;;;;;;;;4.00;3.00;;;;;27.47;50.66;100172.72;5056487;28;45385;-75
2023/08/26 09:46:49;;;;;;;;;4.00;4.00;;;;;27.25;51.13;100172.84;5039358;28;45346;-75
2023/08/26 09:49:17;;;;;;;;;7.67;6.00;;;;;27.14;51.99;100171.50;5056915;28;45513;-75
2023/08/26 09:51:48;;;;;;;;;3.00;3.00;;;;;26.55;52.34;100129.38;5056686;28;45367;-77
2023/08/26 09:54:18;;;;;;;;;4.00;3.67;;;;;26.61;52.27;100172.00;5074934;27;45427;-78
2023/08/26 09:56:48;;;;;;;;;3.00;3.00;;;;;26.44;52.22;100171.81;5050623;28;45458;-81
2023/08/26 09:59:15;;;;;;;;;5.00;4.00;;;;;26.26;52.36;100174.34;5050836;28;45734;-77
2023/08/26 10:01:42;;;;;;;;;4.00;3.67;;;;;26.06;52.65;100182.28;5058936;28;46228;-74
2023/08/26 10:04:20;;;;;;;;;4.00;3.00;;;;;25.59;53.67;100175.16;5038671;28;45481;-75
2023/08/26 10:06:55;;;;;;;;;3.33;2.67;;;;;25.36;55.09;100171.53;5055581;28;45460;-74
2023/08/26 10:09:30;;;;;;;;;5.67;4.00;;;;;25.17;55.91;100179.34;5056951;28;45397;-76
2023/08/26 10:11:58;;;;;;;;;3.33;3.33;;;;;24.99;56.58;100167.50;5038079;28;47318;-75
2023/08/26 10:14:25;;;;;;;;;3.67;3.67;;;;;24.78;57.46;100170.94;5046304;28;45529;-74
2023/08/26 10:16:54;;;;;;;;;2.00;2.00;;;;;24.71;56.71;100161.38;5063497;28;45359;-76
2023/08/26 10:19:21;;;;;;;;;2.00;2.00;;;;;24.79;56.88;100168.22;5050648;28;45535;-77
2023/08/26 10:21:47;;;;;;;;;2.33;2.00;;;;;24.80;57.62;100180.63;5058311;28;45625;-76
2023/08/26 10:24:14;;;;;;;;;5.67;4.00;;;;;24.67;57.95;100165.06;5058235;28;45579;-79
2023/08/26 10:26:40;;;;;;;;;3.33;3.33;;;;;24.53;58.68;100157.53;5063111;28;46146;-74
2023/08/26 10:29:06;;;;;;;;;2.00;2.00;;;;;24.71;59.03;100180.06;5054826;28;45687;-75
2023/08/26 10:31:38;;;;;;;;;3.00;3.00;;;;;24.77;58.62;100177.19;5060553;28;46254;-76
2023/08/26 10:34:09;;;;;;;;;2.67;2.00;;;;;24.85;58.84;100176.91;5065445;28;46027;-75
2023/08/26 10:36:40;;;;;;;;;3.33;3.33;;;;;24.81;58.64;100161.03;5052661;28;45492;-75
2023/08/26 10:39:18;;;;;;;;;3.33;3.00;;;;;24.86;58.45;100176.00;5056916;28;45638;-77
2023/08/26 10:42:13;;;;;;;;;5.00;5.00;;;;;24.86;58.78;100168.00;5046299;28;45963;-75
2023/08/26 10:44:40;;;;;;;;;3.00;3.00;;;;;24.93;58.63;100167.72;5059219;28;45454;-80
2023/08/26 10:47:05;;;;;;;;;3.00;2.67;;;;;25.00;58.57;100168.38;5054324;28;45413;-76
2023/08/26 10:49:31;;;;;;;;;3.00;2.00;;;;;24.90;58.07;100153.59;5063850;28;45862;-75
2023/08/26 10:52:17;;;;;;;;;3.00;3.00;;;;;25.06;58.50;100175.31;5074648;27;45559;-77
2023/08/26 10:54:46;;;;;;;;;3.00;3.00;;;;;24.98;58.53;100168.41;5056734;28;45400;-75
2023/08/26 10:57:12;;;;;;;;;4.00;3.00;;;;;25.08;58.71;100176.97;5056250;28;45398;-76
2023/08/26 10:59:40;;;;;;;;;4.00;3.33;;;;;25.10;58.64;100161.75;5037697;28;45517;-75
2023/08/26 11:02:07;;;;;;;;;3.33;3.33;;;;;25.24;58.27;100174.66;5057261;28;45415;-81
2023/08/26 11:04:45;;;;;;;;;4.67;4.00;;;;;25.30;58.53;100173.56;5058508;28;45556;-76
2023/08/26 11:07:20;;;;;;;;;4.00;4.00;;;;;25.24;58.76;100163.09;5058393;28;45390;-76
2023/08/26 11:09:46;;;;;;;;;3.67;3.67;;;;;25.35;58.43;100160.91;5054137;28;45514;-78
2023/08/26 11:12:26;;;;;;;;;3.67;3.00;;;;;25.35;58.28;100151.09;5069129;28;46161;-75
2023/08/26 11:14:53;;;;;;;;;3.67;3.00;;;;;25.44;57.92;100155.19;5044736;28;45544;-76
2023/08/26 11:17:19;;;;;;;;;2.33;2.33;;;;;25.56;57.62;100165.44;5064216;28;45383;-75
2023/08/26 11:19:44;;;;;;;;;4.00;3.00;;;;;25.60;57.60;100166.19;5056004;28;45525;-78
2023/08/26 11:22:11;;;;;;;;;2.33;2.33;;;;;25.53;57.45;100157.53;5060740;28;45490;-78